KNEL/NEL METAR and TAF weather

Enter ICAO airport designator
Station Type Date Time Source
KNEL METAR 2019/12/08 07:00 UTC NOAA

KNEL 080700Z AUTO 00000KT CLR M09/M11 A3052 RMK AO2 SLP334 T10891106 FZRANO $


Station Type Date Time Source
KNEL Decoded METAR 2019/12/08 07:00 UTC NOAA

Lakehurst Naval Air Station, NJ, United States (KNEL) 40-02N 074-19W 24M
Dec 08, 2019 - 02:00 AM EST / 2019.12.08 0700 UTC
Wind: Calm:0
Sky conditions: clear
Temperature: 16.0 F (-8.9 C)
Dew Point: 12.9 F (-10.6 C)
Relative Humidity: 87%
Pressure (altimeter): 30.52 in. Hg (1033 hPa)
ob: KNEL 080700Z AUTO 00000KT CLR M09/M11 A3052 RMK AO2 SLP334 T10891106 FZRANO
cycle: 7

Station Type Date Time Source
KNEL TAF UTC NOAA

Error!

Example: see airport list